sensor_id;sensor_type;location;lat;lon;timestamp;P1;durP1;ratioP1;P2;durP2;ratioP2
3405;SDS011;10008;48.682;9.016;2023-04-06T00:02:01;20.00;;;17.20;;
3405;SDS011;10008;48.682;9.016;2023-04-06T00:04:27;20.63;;;17.33;;
3405;SDS011;10008;48.682;9.016;2023-04-06T00:06:52;21.50;;;18.20;;
3405;SDS011;10008;48.682;9.016;2023-04-06T00:09:18;22.73;;;17.73;;
3405;SDS011;10008;48.682;9.016;2023-04-06T00:11:44;27.30;;;18.73;;
3405;SDS011;10008;48.682;9.016;2023-04-06T00:14:10;20.53;;;15.90;;
3405;SDS011;10008;48.682;9.016;2023-04-06T00:16:36;24.90;;;17.13;;
3405;SDS011;10008;48.682;9.016;2023-04-06T00:19:02;23.20;;;18.50;;
3405;SDS011;10008;48.682;9.016;2023-04-06T00:21:27;21.57;;;16.63;;
3405;SDS011;10008;48.682;9.016;2023-04-06T00:23:53;21.97;;;18.03;;
3405;SDS011;10008;48.682;9.016;2023-04-06T00:26:19;21.70;;;17.57;;
3405;SDS011;10008;48.682;9.016;2023-04-06T00:28:46;21.63;;;17.87;;
3405;SDS011;10008;48.682;9.016;2023-04-06T00:31:12;22.53;;;18.93;;
3405;SDS011;10008;48.682;9.016;2023-04-06T00:33:37;21.57;;;17.53;;
3405;SDS011;10008;48.682;9.016;2023-04-06T00:36:03;23.07;;;18.80;;
3405;SDS011;10008;48.682;9.016;2023-04-06T00:38:30;20.80;;;16.60;;
3405;SDS011;10008;48.682;9.016;2023-04-06T00:40:57;22.57;;;16.53;;
3405;SDS011;10008;48.682;9.016;2023-04-06T00:43:23;24.60;;;17.77;;
3405;SDS011;10008;48.682;9.016;2023-04-06T00:45:49;22.70;;;18.60;;
3405;SDS011;10008;48.682;9.016;2023-04-06T00:48:15;24.40;;;19.10;;
3405;SDS011;10008;48.682;9.016;2023-04-06T00:50:42;23.40;;;16.27;;
3405;SDS011;10008;48.682;9.016;2023-04-06T00:53:08;26.33;;;15.80;;
3405;SDS011;10008;48.682;9.016;2023-04-06T00:55:34;21.77;;;15.90;;
3405;SDS011;10008;48.682;9.016;2023-04-06T00:58:01;23.87;;;16.50;;
3405;SDS011;10008;48.682;9.016;2023-04-06T01:00:38;21.33;;;16.20;;
3405;SDS011;10008;48.682;9.016;2023-04-06T01:03:05;25.30;;;16.60;;
3405;SDS011;10008;48.682;9.016;2023-04-06T01:05:37;25.93;;;17.50;;
3405;SDS011;10008;48.682;9.016;2023-04-06T01:08:09;23.57;;;16.70;;
3405;SDS011;10008;48.682;9.016;2023-04-06T01:10:35;21.43;;;16.50;;
3405;SDS011;10008;48.682;9.016;2023-04-06T01:13:21;22.03;;;17.07;;
3405;SDS011;10008;48.682;9.016;2023-04-06T01:15:57;23.63;;;16.93;;
3405;SDS011;10008;48.682;9.016;2023-04-06T01:18:32;21.23;;;16.80;;
3405;SDS011;10008;48.682;9.016;2023-04-06T01:21:20;23.87;;;17.13;;
3405;SDS011;10008;48.682;9.016;2023-04-06T01:24:04;24.30;;;16.90;;
3405;SDS011;10008;48.682;9.016;2023-04-06T01:26:42;21.17;;;16.70;;
3405;SDS011;10008;48.682;9.016;2023-04-06T01:29:09;24.50;;;15.60;;
3405;SDS011;10008;48.682;9.016;2023-04-06T01:31:35;28.67;;;17.40;;
3405;SDS011;10008;48.682;9.016;2023-04-06T01:34:01;23.97;;;17.47;;
3405;SDS011;10008;48.682;9.016;2023-04-06T01:36:27;22.50;;;15.50;;
3405;SDS011;10008;48.682;9.016;2023-04-06T01:39:05;20.30;;;14.87;;
3405;SDS011;10008;48.682;9.016;2023-04-06T01:41:34;27.13;;;16.63;;
3405;SDS011;10008;48.682;9.016;2023-04-06T01:44:01;21.93;;;16.03;;
3405;SDS011;10008;48.682;9.016;2023-04-06T01:46:28;21.77;;;16.63;;
3405;SDS011;10008;48.682;9.016;2023-04-06T01:48:55;22.10;;;16.60;;
3405;SDS011;10008;48.682;9.016;2023-04-06T01:51:30;22.93;;;16.30;;
3405;SDS011;10008;48.682;9.016;2023-04-06T01:53:59;23.90;;;16.67;;
3405;SDS011;10008;48.682;9.016;2023-04-06T01:56:49;22.20;;;15.20;;
3405;SDS011;10008;48.682;9.016;2023-04-06T01:59:32;27.43;;;16.97;;
3405;SDS011;10008;48.682;9.016;2023-04-06T02:02:02;29.13;;;16.80;;
3405;SDS011;10008;48.682;9.016;2023-04-06T02:04:29;22.00;;;16.00;;
3405;SDS011;10008;48.682;9.016;2023-04-06T02:07:05;24.10;;;16.40;;
3405;SDS011;10008;48.682;9.016;2023-04-06T02:09:31;26.90;;;17.40;;
3405;SDS011;10008;48.682;9.016;2023-04-06T02:11:58;27.20;;;17.10;;
3405;SDS011;10008;48.682;9.016;2023-04-06T02:14:26;22.30;;;15.67;;
3405;SDS011;10008;48.682;9.016;2023-04-06T02:16:56;23.80;;;15.80;;
3405;SDS011;10008;48.682;9.016;2023-04-06T02:19:22;24.87;;;15.93;;
3405;SDS011;10008;48.682;9.016;2023-04-06T02:21:48;26.30;;;17.30;;
3405;SDS011;10008;48.682;9.016;2023-04-06T02:24:13;25.03;;;16.57;;
3405;SDS011;10008;48.682;9.016;2023-04-06T02:26:39;20.60;;;17.07;;
3405;SDS011;10008;48.682;9.016;2023-04-06T02:29:05;21.37;;;16.80;;
3405;SDS011;10008;48.682;9.016;2023-04-06T02:31:31;22.90;;;16.60;;
3405;SDS011;10008;48.682;9.016;2023-04-06T02:33:58;26.00;;;17.40;;
3405;SDS011;10008;48.682;9.016;2023-04-06T02:36:25;18.57;;;14.90;;
3405;SDS011;10008;48.682;9.016;2023-04-06T02:38:51;18.77;;;14.67;;
3405;SDS011;10008;48.682;9.016;2023-04-06T02:41:17;21.20;;;15.07;;
3405;SDS011;10008;48.682;9.016;2023-04-06T02:43:43;23.37;;;15.97;;
3405;SDS011;10008;48.682;9.016;2023-04-06T02:46:32;21.90;;;16.00;;
3405;SDS011;10008;48.682;9.016;2023-04-06T02:48:58;23.40;;;16.60;;
3405;SDS011;10008;48.682;9.016;2023-04-06T02:51:27;21.97;;;16.50;;
3405;SDS011;10008;48.682;9.016;2023-04-06T02:53:59;24.63;;;17.60;;
3405;SDS011;10008;48.682;9.016;2023-04-06T02:56:25;21.03;;;16.63;;
3405;SDS011;10008;48.682;9.016;2023-04-06T02:58:51;23.70;;;17.43;;
3405;SDS011;10008;48.682;9.016;2023-04-06T03:01:22;26.10;;;16.30;;
3405;SDS011;10008;48.682;9.016;2023-04-06T03:03:54;21.07;;;16.70;;
3405;SDS011;10008;48.682;9.016;2023-04-06T03:06:24;26.17;;;17.00;;
3405;SDS011;10008;48.682;9.016;2023-04-06T03:08:54;23.87;;;16.90;;
3405;SDS011;10008;48.682;9.016;2023-04-06T03:11:20;27.10;;;16.67;;
3405;SDS011;10008;48.682;9.016;2023-04-06T03:13:48;25.37;;;16.63;;
3405;SDS011;10008;48.682;9.016;2023-04-06T03:16:14;28.10;;;17.00;;
3405;SDS011;10008;48.682;9.016;2023-04-06T03:18:40;23.67;;;17.10;;
3405;SDS011;10008;48.682;9.016;2023-04-06T03:21:06;21.83;;;15.43;;
3405;SDS011;10008;48.682;9.016;2023-04-06T03:23:43;24.53;;;15.93;;
3405;SDS011;10008;48.682;9.016;2023-04-06T03:26:08;24.23;;;15.87;;
3405;SDS011;10008;48.682;9.016;2023-04-06T03:28:35;21.53;;;15.07;;
3405;SDS011;10008;48.682;9.016;2023-04-06T03:31:03;22.93;;;16.47;;
3405;SDS011;10008;48.682;9.016;2023-04-06T03:33:58;22.13;;;16.33;;
3405;SDS011;10008;48.682;9.016;2023-04-06T03:36:29;23.13;;;15.83;;
3405;SDS011;10008;48.682;9.016;2023-04-06T03:38:56;21.40;;;15.30;;
3405;SDS011;10008;48.682;9.016;2023-04-06T03:41:22;23.23;;;16.23;;
3405;SDS011;10008;48.682;9.016;2023-04-06T03:44:00;23.33;;;15.40;;
3405;SDS011;10008;48.682;9.016;2023-04-06T03:46:26;21.23;;;15.70;;
3405;SDS011;10008;48.682;9.016;2023-04-06T03:48:55;21.83;;;15.80;;
3405;SDS011;10008;48.682;9.016;2023-04-06T03:51:22;20.43;;;15.93;;
3405;SDS011;10008;48.682;9.016;2023-04-06T03:53:48;21.90;;;15.67;;
3405;SDS011;10008;48.682;9.016;2023-04-06T03:56:14;21.43;;;15.57;;
3405;SDS011;10008;48.682;9.016;2023-04-06T03:58:40;22.77;;;16.00;;
3405;SDS011;10008;48.682;9.016;2023-04-06T04:01:06;24.50;;;16.90;;
3405;SDS011;10008;48.682;9.016;2023-04-06T04:03:33;21.87;;;15.80;;
3405;SDS011;10008;48.682;9.016;2023-04-06T04:05:59;21.63;;;16.40;;
3405;SDS011;10008;48.682;9.016;2023-04-06T04:08:25;24.60;;;16.13;;
3405;SDS011;10008;48.682;9.016;2023-04-06T04:10:51;21.67;;;15.90;;
3405;SDS011;10008;48.682;9.016;2023-04-06T04:13:18;23.73;;;15.23;;
3405;SDS011;10008;48.682;9.016;2023-04-06T04:15:46;22.53;;;17.03;;
3405;SDS011;10008;48.682;9.016;2023-04-06T04:18:14;22.93;;;17.23;;
3405;SDS011;10008;48.682;9.016;2023-04-06T04:20:40;22.23;;;16.70;;
3405;SDS011;10008;48.682;9.016;2023-04-06T04:23:07;22.93;;;15.80;;
3405;SDS011;10008;48.682;9.016;2023-04-06T04:25:34;23.83;;;17.37;;
3405;SDS011;10008;48.682;9.016;2023-04-06T04:28:00;21.97;;;16.47;;
3405;SDS011;10008;48.682;9.016;2023-04-06T04:30:26;22.97;;;17.03;;
3405;SDS011;10008;48.682;9.016;2023-04-06T04:32:52;25.40;;;17.30;;
3405;SDS011;10008;48.682;9.016;2023-04-06T04:35:21;20.70;;;16.10;;
3405;SDS011;10008;48.682;9.016;2023-04-06T04:37:47;23.13;;;16.80;;
3405;SDS011;10008;48.682;9.016;2023-04-06T04:40:13;23.73;;;17.10;;
3405;SDS011;10008;48.682;9.016;2023-04-06T04:42:52;26.83;;;18.67;;
3405;SDS011;10008;48.682;9.016;2023-04-06T04:45:25;26.00;;;17.07;;
3405;SDS011;10008;48.682;9.016;2023-04-06T04:47:51;25.73;;;18.00;;
3405;SDS011;10008;48.682;9.016;2023-04-06T04:50:18;27.13;;;17.10;;
3405;SDS011;10008;48.682;9.016;2023-04-06T04:52:47;26.33;;;16.47;;
3405;SDS011;10008;48.682;9.016;2023-04-06T04:55:20;24.30;;;16.50;;
3405;SDS011;10008;48.682;9.016;2023-04-06T04:57:50;30.27;;;17.27;;
3405;SDS011;10008;48.682;9.016;2023-04-06T05:00:20;25.43;;;16.30;;
3405;SDS011;10008;48.682;9.016;2023-04-06T05:02:46;26.40;;;16.43;;
3405;SDS011;10008;48.682;9.016;2023-04-06T05:05:16;25.67;;;17.10;;
3405;SDS011;10008;48.682;9.016;2023-04-06T05:07:42;24.33;;;16.80;;
3405;SDS011;10008;48.682;9.016;2023-04-06T05:10:14;25.67;;;17.33;;
3405;SDS011;10008;48.682;9.016;2023-04-06T05:12:50;28.50;;;16.40;;
3405;SDS011;10008;48.682;9.016;2023-04-06T05:15:17;28.70;;;18.00;;
3405;SDS011;10008;48.682;9.016;2023-04-06T05:17:43;26.77;;;17.63;;
3405;SDS011;10008;48.682;9.016;2023-04-06T05:20:13;28.43;;;18.37;;
3405;SDS011;10008;48.682;9.016;2023-04-06T05:22:45;28.97;;;19.77;;
3405;SDS011;10008;48.682;9.016;2023-04-06T05:25:11;35.30;;;21.53;;
3405;SDS011;10008;48.682;9.016;2023-04-06T05:27:38;31.90;;;20.40;;
3405;SDS011;10008;48.682;9.016;2023-04-06T05:30:14;28.73;;;20.23;;
3405;SDS011;10008;48.682;9.016;2023-04-06T05:32:43;34.27;;;20.77;;
3405;SDS011;10008;48.682;9.016;2023-04-06T05:35:10;29.37;;;20.90;;
3405;SDS011;10008;48.682;9.016;2023-04-06T05:37:37;27.73;;;20.30;;
3405;SDS011;10008;48.682;9.016;2023-04-06T05:40:04;25.70;;;20.07;;
3405;SDS011;10008;48.682;9.016;2023-04-06T05:42:37;28.17;;;21.43;;
3405;SDS011;10008;48.682;9.016;2023-04-06T05:45:08;25.20;;;22.30;;
3405;SDS011;10008;48.682;9.016;2023-04-06T05:47:37;26.50;;;23.10;;
3405;SDS011;10008;48.682;9.016;2023-04-06T05:50:14;26.03;;;21.67;;
3405;SDS011;10008;48.682;9.016;2023-04-06T05:52:40;26.83;;;23.23;;
3405;SDS011;10008;48.682;9.016;2023-04-06T05:55:13;24.83;;;22.20;;
3405;SDS011;10008;48.682;9.016;2023-04-06T05:57:42;25.90;;;22.97;;
3405;SDS011;10008;48.682;9.016;2023-04-06T06:00:08;24.87;;;22.10;;
3405;SDS011;10008;48.682;9.016;2023-04-06T06:02:39;24.50;;;21.90;;
3405;SDS011;10008;48.682;9.016;2023-04-06T06:05:10;23.70;;;21.23;;
3405;SDS011;10008;48.682;9.016;2023-04-06T06:07:36;25.40;;;22.77;;
3405;SDS011;10008;48.682;9.016;2023-04-06T06:10:03;26.27;;;23.37;;
3405;SDS011;10008;48.682;9.016;2023-04-06T06:12:32;24.80;;;22.43;;
3405;SDS011;10008;48.682;9.016;2023-04-06T06:14:58;24.50;;;22.10;;
3405;SDS011;10008;48.682;9.016;2023-04-06T06:17:27;25.77;;;23.27;;
3405;SDS011;10008;48.682;9.016;2023-04-06T06:19:52;25.70;;;23.00;;
3405;SDS011;10008;48.682;9.016;2023-04-06T06:22:18;26.13;;;23.50;;
3405;SDS011;10008;48.682;9.016;2023-04-06T06:24:46;25.87;;;23.33;;
3405;SDS011;10008;48.682;9.016;2023-04-06T06:27:12;25.20;;;22.60;;
3405;SDS011;10008;48.682;9.016;2023-04-06T06:29:38;23.67;;;21.37;;
3405;SDS011;10008;48.682;9.016;2023-04-06T06:32:04;24.60;;;22.20;;
3405;SDS011;10008;48.682;9.016;2023-04-06T06:34:31;25.57;;;22.87;;
3405;SDS011;10008;48.682;9.016;2023-04-06T06:36:59;25.07;;;22.33;;
3405;SDS011;10008;48.682;9.016;2023-04-06T06:39:26;24.87;;;22.37;;
3405;SDS011;10008;48.682;9.016;2023-04-06T06:41:52;25.43;;;22.93;;
3405;SDS011;10008;48.682;9.016;2023-04-06T06:44:22;25.23;;;22.83;;
3405;SDS011;10008;48.682;9.016;2023-04-06T06:46:49;25.50;;;23.10;;
3405;SDS011;10008;48.682;9.016;2023-04-06T06:49:15;25.80;;;23.13;;
3405;SDS011;10008;48.682;9.016;2023-04-06T06:51:40;27.57;;;25.07;;
3405;SDS011;10008;48.682;9.016;2023-04-06T06:54:06;26.10;;;23.50;;
3405;SDS011;10008;48.682;9.016;2023-04-06T06:56:32;24.75;;;22.25;;
3405;SDS011;10008;48.682;9.016;2023-04-06T06:58:58;23.70;;;21.60;;
3405;SDS011;10008;48.682;9.016;2023-04-06T07:01:24;25.20;;;22.80;;
3405;SDS011;10008;48.682;9.016;2023-04-06T07:03:49;26.10;;;23.50;;
3405;SDS011;10008;48.682;9.016;2023-04-06T07:06:15;25.97;;;23.40;;
3405;SDS011;10008;48.682;9.016;2023-04-06T07:08:41;26.40;;;23.83;;
3405;SDS011;10008;48.682;9.016;2023-04-06T07:11:07;26.60;;;23.90;;
3405;SDS011;10008;48.682;9.016;2023-04-06T07:13:33;25.90;;;23.40;;
3405;SDS011;10008;48.682;9.016;2023-04-06T07:16:00;26.40;;;24.00;;
3405;SDS011;10008;48.682;9.016;2023-04-06T07:18:27;26.97;;;24.33;;
3405;SDS011;10008;48.682;9.016;2023-04-06T07:20:52;27.60;;;24.90;;
3405;SDS011;10008;48.682;9.016;2023-04-06T07:23:18;26.27;;;23.93;;
3405;SDS011;10008;48.682;9.016;2023-04-06T07:25:44;27.80;;;25.10;;
3405;SDS011;10008;48.682;9.016;2023-04-06T07:28:10;26.60;;;24.20;;
3405;SDS011;10008;48.682;9.016;2023-04-06T07:30:37;27.27;;;24.40;;
3405;SDS011;10008;48.682;9.016;2023-04-06T07:33:04;26.57;;;24.00;;
3405;SDS011;10008;48.682;9.016;2023-04-06T07:35:31;27.37;;;24.67;;
3405;SDS011;10008;48.682;9.016;2023-04-06T07:37:57;27.20;;;24.73;;
3405;SDS011;10008;48.682;9.016;2023-04-06T07:40:23;27.40;;;24.80;;
3405;SDS011;10008;48.682;9.016;2023-04-06T07:42:51;26.37;;;23.93;;
3405;SDS011;10008;48.682;9.016;2023-04-06T07:45:18;27.03;;;24.53;;
3405;SDS011;10008;48.682;9.016;2023-04-06T07:47:44;25.87;;;23.37;;
3405;SDS011;10008;48.682;9.016;2023-04-06T07:50:11;25.33;;;23.00;;
3405;SDS011;10008;48.682;9.016;2023-04-06T07:52:37;26.30;;;23.50;;
3405;SDS011;10008;48.682;9.016;2023-04-06T07:55:04;48.50;;;43.37;;
3405;SDS011;10008;48.682;9.016;2023-04-06T07:57:30;26.10;;;23.60;;
3405;SDS011;10008;48.682;9.016;2023-04-06T07:59:55;35.27;;;31.63;;
3405;SDS011;10008;48.682;9.016;2023-04-06T08:02:21;25.87;;;23.47;;
3405;SDS011;10008;48.682;9.016;2023-04-06T08:04:47;25.90;;;22.63;;
3405;SDS011;10008;48.682;9.016;2023-04-06T08:07:13;25.17;;;22.67;;
3405;SDS011;10008;48.682;9.016;2023-04-06T08:09:39;25.90;;;23.40;;
3405;SDS011;10008;48.682;9.016;2023-04-06T08:12:04;24.13;;;21.93;;
3405;SDS011;10008;48.682;9.016;2023-04-06T08:14:30;25.53;;;22.97;;
3405;SDS011;10008;48.682;9.016;2023-04-06T08:16:56;25.07;;;22.43;;
3405;SDS011;10008;48.682;9.016;2023-04-06T08:19:22;25.40;;;23.10;;
3405;SDS011;10008;48.682;9.016;2023-04-06T08:21:48;25.90;;;23.30;;
3405;SDS011;10008;48.682;9.016;2023-04-06T08:24:14;26.17;;;23.57;;
3405;SDS011;10008;48.682;9.016;2023-04-06T08:26:40;25.97;;;23.23;;
3405;SDS011;10008;48.682;9.016;2023-04-06T08:29:06;26.63;;;23.83;;
3405;SDS011;10008;48.682;9.016;2023-04-06T08:31:35;25.37;;;22.87;;
3405;SDS011;10008;48.682;9.016;2023-04-06T08:34:02;25.43;;;23.00;;
3405;SDS011;10008;48.682;9.016;2023-04-06T08:36:29;25.27;;;22.77;;
3405;SDS011;10008;48.682;9.016;2023-04-06T08:38:56;24.40;;;22.20;;
3405;SDS011;10008;48.682;9.016;2023-04-06T08:41:22;24.93;;;22.73;;
3405;SDS011;10008;48.682;9.016;2023-04-06T08:43:54;25.80;;;23.10;;
3405;SDS011;10008;48.682;9.016;2023-04-06T08:46:23;24.10;;;21.90;;
3405;SDS011;10008;48.682;9.016;2023-04-06T08:48:55;24.33;;;21.93;;
3405;SDS011;10008;48.682;9.016;2023-04-06T08:51:22;24.70;;;22.40;;
3405;SDS011;10008;48.682;9.016;2023-04-06T08:53:53;25.80;;;23.33;;
3405;SDS011;10008;48.682;9.016;2023-04-06T08:56:23;26.20;;;23.70;;
3405;SDS011;10008;48.682;9.016;2023-04-06T08:58:50;24.07;;;21.83;;
3405;SDS011;10008;48.682;9.016;2023-04-06T09:01:18;24.80;;;22.50;;
3405;SDS011;10008;48.682;9.016;2023-04-06T09:03:46;24.57;;;22.07;;
3405;SDS011;10008;48.682;9.016;2023-04-06T09:06:15;23.03;;;20.93;;
3405;SDS011;10008;48.682;9.016;2023-04-06T09:08:44;24.03;;;21.73;;
3405;SDS011;10008;48.682;9.016;2023-04-06T09:11:10;22.00;;;20.00;;
3405;SDS011;10008;48.682;9.016;2023-04-06T09:16:20;21.80;;;19.60;;
3405;SDS011;10008;48.682;9.016;2023-04-06T09:18:47;22.60;;;20.40;;
3405;SDS011;10008;48.682;9.016;2023-04-06T09:21:13;20.80;;;18.80;;
3405;SDS011;10008;48.682;9.016;2023-04-06T09:23:42;20.80;;;18.90;;
3405;SDS011;10008;48.682;9.016;2023-04-06T09:26:15;20.90;;;19.00;;
3405;SDS011;10008;48.682;9.016;2023-04-06T09:28:46;21.40;;;19.50;;
3405;SDS011;10008;48.682;9.016;2023-04-06T09:31:14;21.50;;;19.60;;
3405;SDS011;10008;48.682;9.016;2023-04-06T09:33:43;20.57;;;18.70;;
3405;SDS011;10008;48.682;9.016;2023-04-06T09:36:10;19.83;;;18.03;;
3405;SDS011;10008;48.682;9.016;2023-04-06T09:38:50;21.50;;;19.50;;
3405;SDS011;10008;48.682;9.016;2023-04-06T09:41:25;21.83;;;19.90;;
3405;SDS011;10008;48.682;9.016;2023-04-06T09:44:05;23.57;;;21.47;;
3405;SDS011;10008;48.682;9.016;2023-04-06T09:46:34;21.43;;;19.53;;
3405;SDS011;10008;48.682;9.016;2023-04-06T09:49:04;23.30;;;21.10;;
3405;SDS011;10008;48.682;9.016;2023-04-06T09:51:36;21.53;;;19.50;;
3405;SDS011;10008;48.682;9.016;2023-04-06T09:54:06;22.10;;;20.17;;
3405;SDS011;10008;48.682;9.016;2023-04-06T09:57:18;20.30;;;18.50;;
3405;SDS011;10008;48.682;9.016;2023-04-06T10:02:01;19.77;;;18.07;;
3405;SDS011;10008;48.682;9.016;2023-04-06T10:04:43;21.20;;;19.20;;
3405;SDS011;10008;48.682;9.016;2023-04-06T10:07:15;21.20;;;19.23;;
3405;SDS011;10008;48.682;9.016;2023-04-06T10:09:42;21.07;;;19.17;;
3405;SDS011;10008;48.682;9.016;2023-04-06T10:12:11;20.92;;;18.92;;
3405;SDS011;10008;48.682;9.016;2023-04-06T10:14:38;21.83;;;19.93;;
3405;SDS011;10008;48.682;9.016;2023-04-06T10:17:06;20.50;;;18.70;;
3405;SDS011;10008;48.682;9.016;2023-04-06T10:19:34;21.30;;;19.37;;
3405;SDS011;10008;48.682;9.016;2023-04-06T10:22:29;20.23;;;18.40;;
3405;SDS011;10008;48.682;9.016;2023-04-06T10:25:04;20.83;;;19.03;;
3405;SDS011;10008;48.682;9.016;2023-04-06T10:27:30;21.83;;;19.73;;
3405;SDS011;10008;48.682;9.016;2023-04-06T10:30:01;20.77;;;18.80;;
3405;SDS011;10008;48.682;9.016;2023-04-06T10:32:34;22.43;;;20.30;;
3405;SDS011;10008;48.682;9.016;2023-04-06T10:35:10;20.97;;;19.17;;
3405;SDS011;10008;48.682;9.016;2023-04-06T10:40:25;21.67;;;19.77;;
3405;SDS011;10008;48.682;9.016;2023-04-06T10:42:55;21.33;;;19.47;;
3405;SDS011;10008;48.682;9.016;2023-04-06T10:45:31;20.90;;;19.07;;
3405;SDS011;10008;48.682;9.016;2023-04-06T10:47:58;21.80;;;19.80;;
3405;SDS011;10008;48.682;9.016;2023-04-06T10:50:24;20.87;;;18.97;;
3405;SDS011;10008;48.682;9.016;2023-04-06T10:52:59;20.10;;;18.40;;
3405;SDS011;10008;48.682;9.016;2023-04-06T10:55:27;21.60;;;19.80;;
3405;SDS011;10008;48.682;9.016;2023-04-06T10:57:54;21.57;;;19.70;;
3405;SDS011;10008;48.682;9.016;2023-04-06T11:00:20;21.37;;;19.57;;
3405;SDS011;10008;48.682;9.016;2023-04-06T11:02:46;21.70;;;19.80;;
3405;SDS011;10008;48.682;9.016;2023-04-06T11:05:12;20.20;;;18.40;;
3405;SDS011;10008;48.682;9.016;2023-04-06T11:07:39;21.03;;;19.00;;
3405;SDS011;10008;48.682;9.016;2023-04-06T11:10:05;21.37;;;19.47;;
3405;SDS011;10008;48.682;9.016;2023-04-06T11:12:34;21.00;;;19.20;;
3405;SDS011;10008;48.682;9.016;2023-04-06T11:15:02;19.90;;;18.00;;
3405;SDS011;10008;48.682;9.016;2023-04-06T11:17:36;21.23;;;19.30;;
3405;SDS011;10008;48.682;9.016;2023-04-06T11:20:03;23.13;;;21.03;;
3405;SDS011;10008;48.682;9.016;2023-04-06T11:22:30;23.07;;;21.07;;
3405;SDS011;10008;48.682;9.016;2023-04-06T11:25:08;21.07;;;19.27;;
3405;SDS011;10008;48.682;9.016;2023-04-06T11:27:34;20.70;;;18.90;;
3405;SDS011;10008;48.682;9.016;2023-04-06T11:30:01;21.83;;;19.93;;
3405;SDS011;10008;48.682;9.016;2023-04-06T11:32:27;20.73;;;18.90;;
3405;SDS011;10008;48.682;9.016;2023-04-06T11:34:53;21.80;;;19.60;;
3405;SDS011;10008;48.682;9.016;2023-04-06T11:37:18;20.97;;;19.13;;
3405;SDS011;10008;48.682;9.016;2023-04-06T11:39:52;21.90;;;20.00;;
3405;SDS011;10008;48.682;9.016;2023-04-06T11:42:26;21.13;;;19.33;;
3405;SDS011;10008;48.682;9.016;2023-04-06T11:44:56;22.17;;;20.17;;
3405;SDS011;10008;48.682;9.016;2023-04-06T11:47:27;21.00;;;19.10;;
3405;SDS011;10008;48.682;9.016;2023-04-06T11:49:54;20.80;;;19.00;;
3405;SDS011;10008;48.682;9.016;2023-04-06T11:52:21;20.93;;;19.07;;
3405;SDS011;10008;48.682;9.016;2023-04-06T11:54:49;20.17;;;18.37;;
3405;SDS011;10008;48.682;9.016;2023-04-06T11:57:16;20.57;;;18.83;;
3405;SDS011;10008;48.682;9.016;2023-04-06T11:59:43;22.33;;;20.33;;
3405;SDS011;10008;48.682;9.016;2023-04-06T12:02:09;21.87;;;19.97;;
3405;SDS011;10008;48.682;9.016;2023-04-06T12:04:35;21.73;;;19.73;;
3405;SDS011;10008;48.682;9.016;2023-04-06T12:07:02;22.10;;;20.00;;
3405;SDS011;10008;48.682;9.016;2023-04-06T12:09:29;21.13;;;19.20;;
3405;SDS011;10008;48.682;9.016;2023-04-06T12:11:55;22.60;;;20.40;;
3405;SDS011;10008;48.682;9.016;2023-04-06T12:14:21;21.20;;;19.10;;
3405;SDS011;10008;48.682;9.016;2023-04-06T12:16:47;23.77;;;21.47;;
3405;SDS011;10008;48.682;9.016;2023-04-06T12:19:13;21.70;;;19.77;;
3405;SDS011;10008;48.682;9.016;2023-04-06T12:21:39;21.87;;;19.67;;
3405;SDS011;10008;48.682;9.016;2023-04-06T12:24:05;21.13;;;19.23;;
3405;SDS011;10008;48.682;9.016;2023-04-06T12:26:31;21.40;;;19.40;;
3405;SDS011;10008;48.682;9.016;2023-04-06T12:29:00;21.63;;;19.53;;
3405;SDS011;10008;48.682;9.016;2023-04-06T12:31:32;22.33;;;20.27;;
3405;SDS011;10008;48.682;9.016;2023-04-06T12:33:59;23.17;;;20.73;;
3405;SDS011;10008;48.682;9.016;2023-04-06T12:36:27;21.90;;;19.83;;
3405;SDS011;10008;48.682;9.016;2023-04-06T12:38:53;20.93;;;19.03;;
3405;SDS011;10008;48.682;9.016;2023-04-06T12:41:19;22.10;;;20.00;;
3405;SDS011;10008;48.682;9.016;2023-04-06T12:43:45;21.07;;;19.17;;
3405;SDS011;10008;48.682;9.016;2023-04-06T12:46:11;22.70;;;20.27;;
3405;SDS011;10008;48.682;9.016;2023-04-06T12:48:37;21.93;;;19.83;;
3405;SDS011;10008;48.682;9.016;2023-04-06T12:51:04;21.40;;;19.50;;
3405;SDS011;10008;48.682;9.016;2023-04-06T12:53:31;21.13;;;19.23;;
3405;SDS011;10008;48.682;9.016;2023-04-06T12:55:58;22.30;;;20.20;;
3405;SDS011;10008;48.682;9.016;2023-04-06T12:58:24;21.30;;;19.30;;
3405;SDS011;10008;48.682;9.016;2023-04-06T13:00:54;20.17;;;18.20;;
3405;SDS011;10008;48.682;9.016;2023-04-06T13:03:22;19.93;;;18.13;;
3405;SDS011;10008;48.682;9.016;2023-04-06T13:05:51;19.73;;;17.80;;
3405;SDS011;10008;48.682;9.016;2023-04-06T13:08:18;20.00;;;18.17;;
3405;SDS011;10008;48.682;9.016;2023-04-06T13:13:14;20.47;;;18.70;;
3405;SDS011;10008;48.682;9.016;2023-04-06T13:15:40;20.63;;;18.83;;
3405;SDS011;10008;48.682;9.016;2023-04-06T13:18:07;20.90;;;19.00;;
3405;SDS011;10008;48.682;9.016;2023-04-06T13:20:33;19.63;;;17.83;;
3405;SDS011;10008;48.682;9.016;2023-04-06T13:22:59;20.90;;;19.10;;
3405;SDS011;10008;48.682;9.016;2023-04-06T13:25:25;20.80;;;18.90;;
3405;SDS011;10008;48.682;9.016;2023-04-06T13:27:51;20.57;;;18.70;;
3405;SDS011;10008;48.682;9.016;2023-04-06T13:30:16;20.53;;;18.47;;
3405;SDS011;10008;48.682;9.016;2023-04-06T13:32:42;21.23;;;19.23;;
3405;SDS011;10008;48.682;9.016;2023-04-06T13:35:08;21.50;;;19.50;;
3405;SDS011;10008;48.682;9.016;2023-04-06T13:37:34;21.50;;;19.50;;
3405;SDS011;10008;48.682;9.016;2023-04-06T13:40:03;21.03;;;19.03;;
3405;SDS011;10008;48.682;9.016;2023-04-06T13:42:31;21.70;;;19.80;;
3405;SDS011;10008;48.682;9.016;2023-04-06T13:44:57;20.90;;;19.10;;
3405;SDS011;10008;48.682;9.016;2023-04-06T13:47:24;21.10;;;19.30;;
3405;SDS011;10008;48.682;9.016;2023-04-06T13:49:50;20.63;;;18.73;;
3405;SDS011;10008;48.682;9.016;2023-04-06T13:52:19;21.20;;;19.30;;
3405;SDS011;10008;48.682;9.016;2023-04-06T13:54:45;20.63;;;18.73;;
3405;SDS011;10008;48.682;9.016;2023-04-06T13:57:11;19.93;;;18.23;;
3405;SDS011;10008;48.682;9.016;2023-04-06T13:59:37;20.43;;;18.63;;
3405;SDS011;10008;48.682;9.016;2023-04-06T14:02:04;20.88;;;18.98;;
3405;SDS011;10008;48.682;9.016;2023-04-06T14:04:31;21.43;;;19.33;;
3405;SDS011;10008;48.682;9.016;2023-04-06T14:06:58;21.33;;;19.53;;
3405;SDS011;10008;48.682;9.016;2023-04-06T14:09:24;20.50;;;18.60;;
3405;SDS011;10008;48.682;9.016;2023-04-06T14:11:50;20.73;;;18.83;;
3405;SDS011;10008;48.682;9.016;2023-04-06T14:14:16;20.80;;;18.80;;
3405;SDS011;10008;48.682;9.016;2023-04-06T14:16:42;20.67;;;18.77;;
3405;SDS011;10008;48.682;9.016;2023-04-06T14:19:09;20.63;;;18.73;;
3405;SDS011;10008;48.682;9.016;2023-04-06T14:21:39;21.20;;;19.27;;
3405;SDS011;10008;48.682;9.016;2023-04-06T14:24:06;20.50;;;18.60;;
3405;SDS011;10008;48.682;9.016;2023-04-06T14:26:33;20.30;;;18.50;;
3405;SDS011;10008;48.682;9.016;2023-04-06T14:29:00;21.07;;;19.07;;
3405;SDS011;10008;48.682;9.016;2023-04-06T14:31:26;21.57;;;19.57;;
3405;SDS011;10008;48.682;9.016;2023-04-06T14:33:52;20.80;;;18.90;;
3405;SDS011;10008;48.682;9.016;2023-04-06T14:36:18;22.07;;;19.80;;
3405;SDS011;10008;48.682;9.016;2023-04-06T14:38:43;20.63;;;18.70;;
3405;SDS011;10008;48.682;9.016;2023-04-06T14:41:15;20.80;;;18.90;;
3405;SDS011;10008;48.682;9.016;2023-04-06T14:43:42;20.73;;;18.83;;
3405;SDS011;10008;48.682;9.016;2023-04-06T14:46:08;19.77;;;18.07;;
3405;SDS011;10008;48.682;9.016;2023-04-06T14:48:34;20.97;;;19.07;;
3405;SDS011;10008;48.682;9.016;2023-04-06T14:51:00;20.83;;;18.93;;